sensor_id;sensor_type;location;lat;lon;timestamp;P1;durP1;ratioP1;P2;durP2;ratioP2
55220;SDS011;41089;51.448;6.604;2023-04-20T00:00:08;6.40;;;3.33;;
55220;SDS011;41089;51.448;6.604;2023-04-20T00:06:12;6.53;;;3.22;;
55220;SDS011;41089;51.448;6.604;2023-04-20T00:12:12;4.22;;;3.13;;
55220;SDS011;41089;51.448;6.604;2023-04-20T00:18:13;3.97;;;3.00;;
55220;SDS011;41089;51.448;6.604;2023-04-20T00:24:13;9.68;;;3.30;;
55220;SDS011;41089;51.448;6.604;2023-04-20T00:30:14;4.63;;;3.10;;
55220;SDS011;41089;51.448;6.604;2023-04-20T00:36:14;8.53;;;3.40;;
55220;SDS011;41089;51.448;6.604;2023-04-20T00:42:15;4.40;;;2.90;;
55220;SDS011;41089;51.448;6.604;2023-04-20T00:48:15;5.90;;;3.45;;
55220;SDS011;41089;51.448;6.604;2023-04-20T00:54:16;7.83;;;3.20;;
55220;SDS011;41089;51.448;6.604;2023-04-20T01:00:16;5.63;;;2.70;;
55220;SDS011;41089;51.448;6.604;2023-04-20T01:06:17;4.43;;;2.60;;
55220;SDS011;41089;51.448;6.604;2023-04-20T01:12:17;5.50;;;2.70;;
55220;SDS011;41089;51.448;6.604;2023-04-20T01:18:18;4.03;;;2.63;;
55220;SDS011;41089;51.448;6.604;2023-04-20T01:24:19;6.32;;;2.70;;
55220;SDS011;41089;51.448;6.604;2023-04-20T01:30:19;6.53;;;2.90;;
55220;SDS011;41089;51.448;6.604;2023-04-20T01:36:20;3.60;;;2.65;;
55220;SDS011;41089;51.448;6.604;2023-04-20T01:42:20;5.78;;;2.50;;
55220;SDS011;41089;51.448;6.604;2023-04-20T01:48:21;4.10;;;2.42;;
55220;SDS011;41089;51.448;6.604;2023-04-20T01:54:21;6.13;;;2.80;;
55220;SDS011;41089;51.448;6.604;2023-04-20T02:00:22;5.10;;;2.60;;
55220;SDS011;41089;51.448;6.604;2023-04-20T02:06:22;4.78;;;2.83;;
55220;SDS011;41089;51.448;6.604;2023-04-20T02:12:23;4.20;;;2.27;;
55220;SDS011;41089;51.448;6.604;2023-04-20T02:18:23;5.07;;;2.87;;
55220;SDS011;41089;51.448;6.604;2023-04-20T02:24:24;4.13;;;2.78;;
55220;SDS011;41089;51.448;6.604;2023-04-20T02:30:25;5.63;;;3.45;;
55220;SDS011;41089;51.448;6.604;2023-04-20T02:36:26;4.97;;;2.63;;
55220;SDS011;41089;51.448;6.604;2023-04-20T02:42:28;7.43;;;3.20;;
55220;SDS011;41089;51.448;6.604;2023-04-20T02:48:28;9.68;;;4.88;;
55220;SDS011;41089;51.448;6.604;2023-04-20T02:54:29;6.73;;;2.67;;
55220;SDS011;41089;51.448;6.604;2023-04-20T03:00:29;3.00;;;2.47;;
55220;SDS011;41089;51.448;6.604;2023-04-20T03:06:30;2.67;;;2.47;;
55220;SDS011;41089;51.448;6.604;2023-04-20T03:12:31;9.07;;;3.28;;
55220;SDS011;41089;51.448;6.604;2023-04-20T03:18:32;4.15;;;2.72;;
55220;SDS011;41089;51.448;6.604;2023-04-20T03:24:32;3.58;;;2.50;;
55220;SDS011;41089;51.448;6.604;2023-04-20T03:30:33;6.25;;;2.88;;
55220;SDS011;41089;51.448;6.604;2023-04-20T03:36:33;7.97;;;2.80;;
55220;SDS011;41089;51.448;6.604;2023-04-20T03:42:34;5.50;;;2.80;;
55220;SDS011;41089;51.448;6.604;2023-04-20T03:48:36;5.10;;;3.03;;
55220;SDS011;41089;51.448;6.604;2023-04-20T03:54:36;3.37;;;2.93;;
55220;SDS011;41089;51.448;6.604;2023-04-20T04:00:37;3.63;;;2.80;;
55220;SDS011;41089;51.448;6.604;2023-04-20T04:06:37;4.93;;;2.93;;
55220;SDS011;41089;51.448;6.604;2023-04-20T04:12:37;6.17;;;3.10;;
55220;SDS011;41089;51.448;6.604;2023-04-20T04:18:42;4.43;;;3.10;;
55220;SDS011;41089;51.448;6.604;2023-04-20T04:24:43;6.40;;;3.30;;
55220;SDS011;41089;51.448;6.604;2023-04-20T04:30:43;3.92;;;3.00;;
55220;SDS011;41089;51.448;6.604;2023-04-20T04:36:44;9.18;;;3.20;;
55220;SDS011;41089;51.448;6.604;2023-04-20T04:42:45;9.97;;;3.30;;
55220;SDS011;41089;51.448;6.604;2023-04-20T04:48:46;8.57;;;3.00;;
55220;SDS011;41089;51.448;6.604;2023-04-20T04:54:46;3.70;;;3.00;;
55220;SDS011;41089;51.448;6.604;2023-04-20T05:00:48;4.07;;;3.20;;
55220;SDS011;41089;51.448;6.604;2023-04-20T05:06:48;6.37;;;3.60;;
55220;SDS011;41089;51.448;6.604;2023-04-20T05:12:49;4.63;;;3.20;;
55220;SDS011;41089;51.448;6.604;2023-04-20T05:18:51;5.72;;;3.78;;
55220;SDS011;41089;51.448;6.604;2023-04-20T05:24:51;5.00;;;3.30;;
55220;SDS011;41089;51.448;6.604;2023-04-20T05:30:53;6.35;;;3.53;;
55220;SDS011;41089;51.448;6.604;2023-04-20T05:36:54;6.55;;;3.92;;
55220;SDS011;41089;51.448;6.604;2023-04-20T05:42:56;7.30;;;4.10;;
55220;SDS011;41089;51.448;6.604;2023-04-20T05:48:56;5.10;;;3.42;;
55220;SDS011;41089;51.448;6.604;2023-04-20T05:54:56;5.37;;;3.80;;
55220;SDS011;41089;51.448;6.604;2023-04-20T06:00:58;8.10;;;3.85;;
55220;SDS011;41089;51.448;6.604;2023-04-20T06:06:59;6.53;;;4.13;;
55220;SDS011;41089;51.448;6.604;2023-04-20T06:13:00;6.78;;;4.32;;
55220;SDS011;41089;51.448;6.604;2023-04-20T06:19:00;5.23;;;4.10;;
55220;SDS011;41089;51.448;6.604;2023-04-20T06:25:01;8.52;;;3.92;;
55220;SDS011;41089;51.448;6.604;2023-04-20T06:31:02;7.13;;;3.85;;
55220;SDS011;41089;51.448;6.604;2023-04-20T06:37:04;8.70;;;4.18;;
55220;SDS011;41089;51.448;6.604;2023-04-20T06:43:05;4.85;;;4.40;;
55220;SDS011;41089;51.448;6.604;2023-04-20T06:49:06;7.00;;;4.38;;
55220;SDS011;41089;51.448;6.604;2023-04-20T06:55:06;8.07;;;4.68;;
55220;SDS011;41089;51.448;6.604;2023-04-20T07:01:07;8.40;;;4.88;;
55220;SDS011;41089;51.448;6.604;2023-04-20T07:07:08;8.32;;;4.75;;
55220;SDS011;41089;51.448;6.604;2023-04-20T07:13:08;6.00;;;4.57;;
55220;SDS011;41089;51.448;6.604;2023-04-20T07:19:08;7.40;;;5.45;;
55220;SDS011;41089;51.448;6.604;2023-04-20T07:25:09;8.60;;;5.60;;
55220;SDS011;41089;51.448;6.604;2023-04-20T07:31:10;5.85;;;4.65;;
55220;SDS011;41089;51.448;6.604;2023-04-20T07:37:10;7.33;;;5.43;;
55220;SDS011;41089;51.448;6.604;2023-04-20T07:43:11;8.48;;;5.70;;
55220;SDS011;41089;51.448;6.604;2023-04-20T07:49:11;8.07;;;6.23;;
55220;SDS011;41089;51.448;6.604;2023-04-20T07:55:12;6.05;;;5.45;;
55220;SDS011;41089;51.448;6.604;2023-04-20T08:01:13;7.72;;;5.72;;
55220;SDS011;41089;51.448;6.604;2023-04-20T08:07:13;10.10;;;5.72;;
55220;SDS011;41089;51.448;6.604;2023-04-20T08:13:14;10.98;;;7.18;;
55220;SDS011;41089;51.448;6.604;2023-04-20T08:19:14;9.63;;;6.43;;
55220;SDS011;41089;51.448;6.604;2023-04-20T08:25:15;9.83;;;6.23;;
55220;SDS011;41089;51.448;6.604;2023-04-20T08:31:15;10.63;;;5.75;;
55220;SDS011;41089;51.448;6.604;2023-04-20T08:37:15;7.23;;;4.33;;
55220;SDS011;41089;51.448;6.604;2023-04-20T08:43:16;8.48;;;5.13;;
55220;SDS011;41089;51.448;6.604;2023-04-20T08:49:17;6.30;;;5.10;;
55220;SDS011;41089;51.448;6.604;2023-04-20T08:55:18;6.88;;;5.30;;
55220;SDS011;41089;51.448;6.604;2023-04-20T09:01:26;6.55;;;5.47;;
55220;SDS011;41089;51.448;6.604;2023-04-20T09:07:26;7.25;;;5.80;;
55220;SDS011;41089;51.448;6.604;2023-04-20T09:13:27;9.45;;;6.63;;
55220;SDS011;41089;51.448;6.604;2023-04-20T09:19:28;7.88;;;5.35;;
55220;SDS011;41089;51.448;6.604;2023-04-20T09:25:30;7.97;;;5.80;;
55220;SDS011;41089;51.448;6.604;2023-04-20T09:31:31;6.05;;;5.15;;
55220;SDS011;41089;51.448;6.604;2023-04-20T09:37:45;11.85;;;6.53;;
55220;SDS011;41089;51.448;6.604;2023-04-20T09:43:46;10.63;;;5.82;;
55220;SDS011;41089;51.448;6.604;2023-04-20T09:49:47;8.13;;;5.82;;
55220;SDS011;41089;51.448;6.604;2023-04-20T09:55:49;11.07;;;7.10;;
55220;SDS011;41089;51.448;6.604;2023-04-20T10:01:50;8.30;;;6.65;;
55220;SDS011;41089;51.448;6.604;2023-04-20T10:07:57;10.60;;;8.53;;
55220;SDS011;41089;51.448;6.604;2023-04-20T10:14:00;10.68;;;7.45;;
55220;SDS011;41089;51.448;6.604;2023-04-20T10:20:20;9.85;;;8.23;;
55220;SDS011;41089;51.448;6.604;2023-04-20T10:26:22;9.20;;;8.30;;
55220;SDS011;41089;51.448;6.604;2023-04-20T10:32:26;10.43;;;8.40;;
55220;SDS011;41089;51.448;6.604;2023-04-20T10:38:28;11.00;;;7.22;;
55220;SDS011;41089;51.448;6.604;2023-04-20T10:44:32;6.78;;;5.90;;
55220;SDS011;41089;51.448;6.604;2023-04-20T10:50:34;6.43;;;5.82;;
55220;SDS011;41089;51.448;6.604;2023-04-20T11:02:46;7.90;;;5.18;;
55220;SDS011;41089;51.448;6.604;2023-04-20T11:08:48;4.22;;;3.92;;
55220;SDS011;41089;51.448;6.604;2023-04-20T11:14:55;3.60;;;3.30;;
55220;SDS011;41089;51.448;6.604;2023-04-20T11:20:59;4.18;;;3.78;;
55220;SDS011;41089;51.448;6.604;2023-04-20T11:27:00;4.87;;;4.03;;
55220;SDS011;41089;51.448;6.604;2023-04-20T11:33:01;3.30;;;3.00;;
55220;SDS011;41089;51.448;6.604;2023-04-20T11:39:07;4.10;;;3.60;;
55220;SDS011;41089;51.448;6.604;2023-04-20T11:45:09;5.50;;;3.60;;
55220;SDS011;41089;51.448;6.604;2023-04-20T11:51:11;3.30;;;3.10;;
55220;SDS011;41089;51.448;6.604;2023-04-20T11:57:12;7.65;;;4.13;;
55220;SDS011;41089;51.448;6.604;2023-04-20T12:03:12;3.72;;;3.33;;
55220;SDS011;41089;51.448;6.604;2023-04-20T12:09:13;5.22;;;3.50;;
55220;SDS011;41089;51.448;6.604;2023-04-20T12:15:14;3.97;;;3.58;;
55220;SDS011;41089;51.448;6.604;2023-04-20T12:21:14;3.40;;;3.05;;
55220;SDS011;41089;51.448;6.604;2023-04-20T12:27:15;3.00;;;2.80;;
55220;SDS011;41089;51.448;6.604;2023-04-20T12:33:15;3.50;;;3.20;;
55220;SDS011;41089;51.448;6.604;2023-04-20T12:39:16;4.43;;;3.50;;
55220;SDS011;41089;51.448;6.604;2023-04-20T12:45:16;3.60;;;3.30;;
55220;SDS011;41089;51.448;6.604;2023-04-20T12:51:17;4.97;;;3.45;;
55220;SDS011;41089;51.448;6.604;2023-04-20T12:57:17;3.35;;;3.00;;
55220;SDS011;41089;51.448;6.604;2023-04-20T13:03:17;4.53;;;3.40;;
55220;SDS011;41089;51.448;6.604;2023-04-20T13:15:19;14.30;;;4.40;;
55220;SDS011;41089;51.448;6.604;2023-04-20T13:21:20;3.65;;;3.35;;
55220;SDS011;41089;51.448;6.604;2023-04-20T13:27:20;4.00;;;3.60;;
55220;SDS011;41089;51.448;6.604;2023-04-20T13:33:21;4.00;;;3.60;;
55220;SDS011;41089;51.448;6.604;2023-04-20T13:39:21;6.10;;;4.30;;
55220;SDS011;41089;51.448;6.604;2023-04-20T13:45:22;8.02;;;4.00;;
55220;SDS011;41089;51.448;6.604;2023-04-20T13:51:23;8.95;;;4.28;;
55220;SDS011;41089;51.448;6.604;2023-04-20T14:03:24;6.07;;;4.88;;
55220;SDS011;41089;51.448;6.604;2023-04-20T14:09:25;9.38;;;5.22;;
55220;SDS011;41089;51.448;6.604;2023-04-20T14:15:27;7.35;;;5.05;;
55220;SDS011;41089;51.448;6.604;2023-04-20T14:21:30;7.70;;;5.15;;
55220;SDS011;41089;51.448;6.604;2023-04-20T14:27:31;7.72;;;4.78;;
55220;SDS011;41089;51.448;6.604;2023-04-20T14:33:32;7.80;;;4.40;;
55220;SDS011;41089;51.448;6.604;2023-04-20T14:39:33;6.07;;;4.80;;
55220;SDS011;41089;51.448;6.604;2023-04-20T14:45:33;5.50;;;4.50;;
55220;SDS011;41089;51.448;6.604;2023-04-20T14:57:34;8.27;;;5.82;;
55220;SDS011;41089;51.448;6.604;2023-04-20T15:03:34;6.22;;;5.63;;
55220;SDS011;41089;51.448;6.604;2023-04-20T15:09:35;6.00;;;5.50;;
55220;SDS011;41089;51.448;6.604;2023-04-20T15:15:35;6.37;;;5.30;;
55220;SDS011;41089;51.448;6.604;2023-04-20T15:21:35;6.05;;;5.45;;
55220;SDS011;41089;51.448;6.604;2023-04-20T15:27:36;6.40;;;5.32;;
55220;SDS011;41089;51.448;6.604;2023-04-20T15:33:36;6.40;;;5.80;;
55220;SDS011;41089;51.448;6.604;2023-04-20T15:39:41;7.28;;;6.22;;
55220;SDS011;41089;51.448;6.604;2023-04-20T15:45:41;7.82;;;6.65;;
55220;SDS011;41089;51.448;6.604;2023-04-20T15:51:41;6.23;;;5.63;;
55220;SDS011;41089;51.448;6.604;2023-04-20T15:57:42;6.20;;;5.67;;
55220;SDS011;41089;51.448;6.604;2023-04-20T16:03:42;5.40;;;4.90;;
55220;SDS011;41089;51.448;6.604;2023-04-20T16:09:43;4.47;;;3.92;;
55220;SDS011;41089;51.448;6.604;2023-04-20T16:15:43;4.83;;;4.33;;
55220;SDS011;41089;51.448;6.604;2023-04-20T16:21:44;5.53;;;5.00;;
55220;SDS011;41089;51.448;6.604;2023-04-20T16:27:45;5.82;;;5.10;;
55220;SDS011;41089;51.448;6.604;2023-04-20T16:33:45;6.32;;;5.18;;
55220;SDS011;41089;51.448;6.604;2023-04-20T16:39:46;8.93;;;5.50;;
55220;SDS011;41089;51.448;6.604;2023-04-20T16:45:47;8.30;;;4.63;;
55220;SDS011;41089;51.448;6.604;2023-04-20T16:51:47;4.93;;;4.43;;
55220;SDS011;41089;51.448;6.604;2023-04-20T16:57:48;7.17;;;4.90;;
55220;SDS011;41089;51.448;6.604;2023-04-20T17:03:48;6.38;;;4.65;;
55220;SDS011;41089;51.448;6.604;2023-04-20T17:09:49;5.80;;;4.83;;
55220;SDS011;41089;51.448;6.604;2023-04-20T17:15:49;5.93;;;5.43;;
55220;SDS011;41089;51.448;6.604;2023-04-20T17:21:50;9.63;;;5.07;;
55220;SDS011;41089;51.448;6.604;2023-04-20T17:27:52;5.75;;;4.72;;
55220;SDS011;41089;51.448;6.604;2023-04-20T17:33:52;5.03;;;3.70;;
55220;SDS011;41089;51.448;6.604;2023-04-20T17:39:54;4.63;;;4.15;;
55220;SDS011;41089;51.448;6.604;2023-04-20T17:45:56;4.47;;;4.07;;
55220;SDS011;41089;51.448;6.604;2023-04-20T17:51:59;4.07;;;3.67;;
55220;SDS011;41089;51.448;6.604;2023-04-20T17:58:00;4.87;;;4.40;;
55220;SDS011;41089;51.448;6.604;2023-04-20T18:04:01;5.22;;;4.72;;
55220;SDS011;41089;51.448;6.604;2023-04-20T18:10:02;8.77;;;4.88;;
55220;SDS011;41089;51.448;6.604;2023-04-20T18:16:03;7.75;;;4.25;;
55220;SDS011;41089;51.448;6.604;2023-04-20T18:22:07;6.55;;;4.30;;
55220;SDS011;41089;51.448;6.604;2023-04-20T18:28:08;5.22;;;4.20;;
55220;SDS011;41089;51.448;6.604;2023-04-20T18:34:09;4.75;;;4.25;;
55220;SDS011;41089;51.448;6.604;2023-04-20T18:40:11;6.60;;;4.40;;
55220;SDS011;41089;51.448;6.604;2023-04-20T18:46:12;7.03;;;4.35;;
55220;SDS011;41089;51.448;6.604;2023-04-20T18:52:12;6.27;;;4.50;;
55220;SDS011;41089;51.448;6.604;2023-04-20T18:58:13;6.53;;;5.50;;
55220;SDS011;41089;51.448;6.604;2023-04-20T19:04:14;6.28;;;5.68;;
55220;SDS011;41089;51.448;6.604;2023-04-20T19:10:15;7.95;;;5.55;;
55220;SDS011;41089;51.448;6.604;2023-04-20T19:16:15;6.43;;;5.83;;
55220;SDS011;41089;51.448;6.604;2023-04-20T19:22:15;6.45;;;5.88;;
55220;SDS011;41089;51.448;6.604;2023-04-20T19:28:16;8.15;;;7.32;;
55220;SDS011;41089;51.448;6.604;2023-04-20T19:34:16;6.63;;;5.97;;
55220;SDS011;41089;51.448;6.604;2023-04-20T19:40:17;7.50;;;6.07;;
55220;SDS011;41089;51.448;6.604;2023-04-20T19:46:20;7.50;;;6.75;;
55220;SDS011;41089;51.448;6.604;2023-04-20T19:52:21;7.32;;;6.72;;
55220;SDS011;41089;51.448;6.604;2023-04-20T19:58:21;7.20;;;6.50;;
55220;SDS011;41089;51.448;6.604;2023-04-20T20:04:22;7.57;;;6.87;;
55220;SDS011;41089;51.448;6.604;2023-04-20T20:10:22;7.45;;;6.70;;
55220;SDS011;41089;51.448;6.604;2023-04-20T20:16:23;8.90;;;7.50;;
55220;SDS011;41089;51.448;6.604;2023-04-20T20:22:24;8.25;;;7.45;;
55220;SDS011;41089;51.448;6.604;2023-04-20T20:28:24;8.40;;;7.57;;
55220;SDS011;41089;51.448;6.604;2023-04-20T20:34:25;9.23;;;8.32;;
55220;SDS011;41089;51.448;6.604;2023-04-20T20:40:25;9.30;;;8.50;;
55220;SDS011;41089;51.448;6.604;2023-04-20T20:46:26;13.27;;;9.57;;
55220;SDS011;41089;51.448;6.604;2023-04-20T20:52:26;10.75;;;9.65;;
55220;SDS011;41089;51.448;6.604;2023-04-20T20:58:27;14.70;;;11.50;;
55220;SDS011;41089;51.448;6.604;2023-04-20T21:04:28;14.25;;;12.55;;
55220;SDS011;41089;51.448;6.604;2023-04-20T21:10:30;16.00;;;14.40;;
55220;SDS011;41089;51.448;6.604;2023-04-20T21:16:30;16.80;;;15.20;;
55220;SDS011;41089;51.448;6.604;2023-04-20T21:22:31;17.83;;;15.93;;
55220;SDS011;41089;51.448;6.604;2023-04-20T21:28:31;18.67;;;16.77;;
55220;SDS011;41089;51.448;6.604;2023-04-20T21:34:32;18.50;;;16.05;;
55220;SDS011;41089;51.448;6.604;2023-04-20T21:40:33;19.47;;;17.57;;
55220;SDS011;41089;51.448;6.604;2023-04-20T21:46:34;20.90;;;18.75;;
55220;SDS011;41089;51.448;6.604;2023-04-20T21:52:34;20.02;;;18.02;;
55220;SDS011;41089;51.448;6.604;2023-04-20T21:58:35;23.70;;;21.30;;
55220;SDS011;41089;51.448;6.604;2023-04-20T22:04:36;24.08;;;21.52;;
55220;SDS011;41089;51.448;6.604;2023-04-20T22:10:37;24.17;;;21.37;;
55220;SDS011;41089;51.448;6.604;2023-04-20T22:16:37;29.33;;;24.42;;
55220;SDS011;41089;51.448;6.604;2023-04-20T22:22:38;24.65;;;21.95;;
55220;SDS011;41089;51.448;6.604;2023-04-20T22:28:39;25.65;;;22.95;;
55220;SDS011;41089;51.448;6.604;2023-04-20T22:34:39;25.88;;;22.95;;
55220;SDS011;41089;51.448;6.604;2023-04-20T22:40:41;25.45;;;22.75;;
55220;SDS011;41089;51.448;6.604;2023-04-20T22:46:41;24.83;;;21.37;;
55220;SDS011;41089;51.448;6.604;2023-04-20T22:52:41;26.88;;;24.00;;
55220;SDS011;41089;51.448;6.604;2023-04-20T22:58:42;25.83;;;22.13;;
55220;SDS011;41089;51.448;6.604;2023-04-20T23:04:42;24.30;;;21.70;;
55220;SDS011;41089;51.448;6.604;2023-04-20T23:10:43;30.92;;;27.02;;
55220;SDS011;41089;51.448;6.604;2023-04-20T23:16:44;31.08;;;27.40;;
55220;SDS011;41089;51.448;6.604;2023-04-20T23:22:44;29.20;;;25.93;;
55220;SDS011;41089;51.448;6.604;2023-04-20T23:28:45;28.02;;;23.30;;
55220;SDS011;41089;51.448;6.604;2023-04-20T23:34:45;33.30;;;25.92;;
55220;SDS011;41089;51.448;6.604;2023-04-20T23:40:46;27.20;;;22.93;;
55220;SDS011;41089;51.448;6.604;2023-04-20T23:46:46;32.17;;;24.30;;
55220;SDS011;41089;51.448;6.604;2023-04-20T23:52:47;23.50;;;21.00;;
55220;SDS011;41089;51.448;6.604;2023-04-20T23:58:47;28.90;;;24.90;;
